flight training Miami

ADF AIRWAYS. MIAMI FLORIDA’S PREMIER FLIGHT TRAINING ACADEMY

Thank you for visiting ADF Airways. Located in Miami, Florida, ADF airways is a premier Flight Training school dedicated to helping those who want to learn how to fly. Whether you are a new student seeking a license to fly for fun, or an advanced pilot looking to get your ATP rating, we’re confident ADF Airways will exceed your expectations!

 

OVER 3 DECADES OF EXPERIENCE WITH A PERSONAL TOUCH

ADF Airways has been in the business of helping pilots since 1986. We take an individual approach to flight training, and can tailor your experience at whatever pace you choose. Our instructors have a combined experience of well over 40 years in the business, and we’re sure we will be able to help you live your dream. ADF Airways is :

  • An FAA-approved Part 141 Flight Academy (Part 61 training available)
  • Approved by the Department of Veterans Affairs (VA)
  • An experiecnced leader in helping students attatin a full range of ratings from Private Pilot to Airline Transport Pilot with Jet Transition training.
  • A strong partner that assists  foreign students to gain FAA ratings and student visas.
  • A quality centered organization that provides experienced Flight Instructors
  • A large provider of a wide range of single and multi-engine aircraft.

ADF Airways has been providing quality Flight instruction for over 3 decades. Established in 1986, we are located at the Kendall-Tamiami Executive Airport (TMB) in Miami, Florida. We have grown into an institution of more than 200 active students. ADF Airways is dedicated to giving each person the personal attention he or she deserves. Our experienced flight instructor staff truly enjoys teaching and giving their undivided attention to the wants and needs of each student. They here just to to help you succeed!

 

Our Programs and Services

ADF Airways offers a variety of programs to suit your needs. Click on any of the links below for more information

CALLING ALL ACTIVE FLIGHT INSTRUCTORS!  

ARE YOU LOOKING FOR A JOB? ADF IS HIRING! CLICK HERE FOR MORE INFORMATION.

EVENTS

advertisement

KTMB Weather

metar

  • KTMB 092153Z 27016KT 10SM CLR 18/09 A3005 RMK AO2 PK WND 28027/2056 SLP175 T01780094
  • KTMB 092053Z 28018G23KT 10SM CLR 18/09 A3003 RMK AO2 PK WND 28027/1954 SLP169 T01830094 55013

taf

  • KTMB 092107Z 0921/1018 28014G21KT P6SM SCT050 BKN200 FM100000 31008KT P6SM BKN070 FM100600 31011KT P6SM OVC070